Time;durP1;ratioP1;P1;durP2;ratioP2;P2;SDS_P1;SDS_P2;PMS_P1;PMS_P2;Temp;Humidity;BMP_temperature;BMP_pressure;BME280_temperature;BME280_humidity;BME280_pressure;Samples;Min_cycle;Max_cycle;Signal;HPM_P1;HPM_P2
2023/10/30 14:32:10;;;;;;;9.93;3.70;;;;;;;;;;5067285;27;1908742;-74
2023/10/30 14:34:55;;;;;;;16.77;5.50;;;;;;;;;;5117993;28;20272;-73
2023/10/30 14:37:41;;;;;;;11.65;4.63;;;;;;;;;;5118082;28;20044;-73
2023/10/30 14:40:26;;;;;;;7.90;2.33;;;;;;;;;;5111133;28;20485;-72
2023/10/30 14:43:12;;;;;;;6.90;2.40;;;;;;;;;;5117933;28;20408;-75
2023/10/30 14:45:57;;;;;;;6.03;1.83;;;;;;;;;;5110690;28;20040;-72
2023/10/30 14:48:42;;;;;;;4.93;1.63;;;;;;;;;;5111209;28;20044;-73
2023/10/30 14:51:27;;;;;;;3.75;1.80;;;;;;;;;;5110906;28;20036;-73
2023/10/30 14:54:13;;;;;;;5.63;1.73;;;;;;;;;;5117553;28;20393;-73
2023/10/30 14:56:58;;;;;;;3.50;1.60;;;;;;;;;;5111038;28;20048;-73
2023/10/30 14:59:44;;;;;;;5.38;2.03;;;;;;;;;;5117961;28;20377;-73
2023/10/30 15:02:31;;;;;;;5.05;2.05;;;;;;;;;;5118069;28;20044;-73
2023/10/30 15:05:17;;;;;;;8.27;2.20;;;;;;;;;;5110453;28;20482;-73
2023/10/30 15:08:03;;;;;;;6.78;2.38;;;;;;;;;;5110266;28;20052;-72
2023/10/30 15:10:49;;;;;;;5.30;2.50;;;;;;;;;;5108084;28;20048;-75
2023/10/30 15:13:34;;;;;;;9.48;2.00;;;;;;;;;;5108654;28;20047;-74
2023/10/30 15:16:20;;;;;;;5.32;1.90;;;;;;;;;;5115475;28;20074;-74
2023/10/30 15:19:08;;;;;;;6.75;2.20;;;;;;;;;;5108703;28;20043;-73
2023/10/30 15:21:54;;;;;;;3.60;2.10;;;;;;;;;;5108844;28;20040;-73
2023/10/30 15:24:40;;;;;;;4.90;2.70;;;;;;;;;;5117021;28;20040;-73
2023/10/30 15:27:27;;;;;;;6.90;2.20;;;;;;;;;;5110449;28;20039;-74
2023/10/30 15:30:12;;;;;;;6.25;2.30;;;;;;;;;;5110483;28;20044;-73
2023/10/30 15:32:58;;;;;;;6.78;2.78;;;;;;;;;;5094270;28;20047;-73
2023/10/30 15:35:44;;;;;;;8.63;3.55;;;;;;;;;;5109810;28;20073;-74
2023/10/30 15:38:33;;;;;;;8.88;3.85;;;;;;;;;;5109984;28;20040;-75
2023/10/30 15:41:21;;;;;;;6.15;3.03;;;;;;;;;;5108349;28;20393;-72
2023/10/30 15:44:07;;;;;;;6.30;3.22;;;;;;;;;;5096715;28;20048;-75
2023/10/30 15:46:53;;;;;;;8.95;5.63;;;;;;;;;;5096441;28;20048;-73
2023/10/30 15:49:38;;;;;;;11.90;5.28;;;;;;;;;;5096065;28;20048;-72
2023/10/30 15:52:28;;;;;;;10.50;6.45;;;;;;;;;;5096561;28;20048;-73
2023/10/30 15:55:14;;;;;;;11.93;6.70;;;;;;;;;;5096208;28;20032;-72
2023/10/30 15:58:00;;;;;;;16.00;9.05;;;;;;;;;;5096069;28;20036;-72
2023/10/30 16:00:46;;;;;;;13.55;6.72;;;;;;;;;;5093503;28;20044;-77
2023/10/30 16:03:52;;;;;;;21.52;11.32;;;;;;;;;;5093535;28;20405;-78
2023/10/30 16:06:39;;;;;;;19.42;8.57;;;;;;;;;;5100729;28;20048;-76
2023/10/30 16:09:24;;;;;;;15.40;6.88;;;;;;;;;;5100676;28;20044;-76
2023/10/30 16:12:10;;;;;;;13.55;6.97;;;;;;;;;;5094050;28;20048;-77
2023/10/30 16:14:56;;;;;;;11.63;6.50;;;;;;;;;;5100219;28;20044;-76
2023/10/30 16:17:42;;;;;;;9.20;4.97;;;;;;;;;;5100411;28;20478;-76
2023/10/30 16:20:27;;;;;;;10.68;4.88;;;;;;;;;;5093930;28;20564;-76
2023/10/30 16:23:13;;;;;;;17.60;6.72;;;;;;;;;;5093931;28;20056;-77
2023/10/30 16:25:59;;;;;;;12.77;5.72;;;;;;;;;;5093866;28;20048;-78
2023/10/30 16:28:44;;;;;;;6.95;3.78;;;;;;;;;;5094134;28;20052;-78
2023/10/30 16:31:30;;;;;;;8.80;3.05;;;;;;;;;;5093448;28;20044;-78
2023/10/30 16:34:19;;;;;;;7.57;3.78;;;;;;;;;;5093481;28;20048;-78
2023/10/30 16:37:08;;;;;;;9.35;4.28;;;;;;;;;;5093393;28;20044;-75
2023/10/30 16:39:52;;;;;;;8.27;3.47;;;;;;;;;;5100121;28;20048;-76
2023/10/30 16:42:38;;;;;;;6.65;3.20;;;;;;;;;;5093595;28;20040;-76
2023/10/30 16:45:24;;;;;;;7.25;3.58;;;;;;;;;;5092170;28;20044;-77
2023/10/30 16:48:11;;;;;;;5.97;3.47;;;;;;;;;;5076383;28;20060;-76
2023/10/30 16:50:56;;;;;;;11.07;4.10;;;;;;;;;;5078103;28;20584;-76
2023/10/30 16:53:41;;;;;;;6.03;3.60;;;;;;;;;;5069436;28;20043;-78
2023/10/30 16:56:27;;;;;;;7.97;3.80;;;;;;;;;;5093278;28;20040;-79
2023/10/30 16:59:13;;;;;;;9.55;3.97;;;;;;;;;;5093101;28;20051;-78
2023/10/30 17:01:58;;;;;;;9.98;4.45;;;;;;;;;;5092743;28;20048;-79
2023/10/30 17:04:44;;;;;;;8.05;3.88;;;;;;;;;;5092225;28;20052;-78
2023/10/30 17:07:29;;;;;;;6.80;3.10;;;;;;;;;;5077317;28;20051;-79
2023/10/30 17:10:15;;;;;;;6.90;3.47;;;;;;;;;;5092854;28;20082;-79
2023/10/30 17:13:03;;;;;;;5.40;2.83;;;;;;;;;;5092760;28;20047;-79
2023/10/30 17:15:48;;;;;;;5.88;2.80;;;;;;;;;;5092750;28;20036;-79
2023/10/30 17:18:34;;;;;;;5.70;2.67;;;;;;;;;;5092936;28;20052;-79
2023/10/30 17:21:20;;;;;;;6.78;2.88;;;;;;;;;;5092583;28;20036;-79
2023/10/30 17:24:06;;;;;;;7.85;3.40;;;;;;;;;;5092782;28;20489;-78
2023/10/30 17:26:53;;;;;;;19.73;11.15;;;;;;;;;;5092911;28;20779;-79
2023/10/30 17:29:38;;;;;;;20.65;13.75;;;;;;;;;;5092929;28;20048;-80
2023/10/30 17:32:24;;;;;;;15.43;9.60;;;;;;;;;;5092428;28;20056;-78
2023/10/30 17:35:12;;;;;;;15.88;9.60;;;;;;;;;;5092443;28;20044;-80
2023/10/30 17:37:59;;;;;;;34.70;16.88;;;;;;;;;;5098825;28;20043;-80
2023/10/30 17:40:45;;;;;;;22.30;10.27;;;;;;;;;;5091297;28;20040;-79
2023/10/30 17:43:32;;;;;;;36.47;16.52;;;;;;;;;;5093404;28;20040;-79
2023/10/30 17:46:19;;;;;;;37.45;20.23;;;;;;;;;;5100639;28;20040;-79
2023/10/30 17:49:05;;;;;;;43.50;21.42;;;;;;;;;;5100337;28;20044;-79
2023/10/30 17:51:51;;;;;;;69.72;37.17;;;;;;;;;;5099505;28;20051;-78
2023/10/30 17:54:36;;;;;;;76.93;39.72;;;;;;;;;;5092245;28;20036;-77
2023/10/30 17:57:22;;;;;;;48.35;29.17;;;;;;;;;;5092747;28;20044;-78
2023/10/30 18:00:09;;;;;;;33.50;21.88;;;;;;;;;;5098595;28;20473;-77
2023/10/30 18:02:59;;;;;;;35.92;23.13;;;;;;;;;;5091866;28;20052;-78
2023/10/30 18:05:45;;;;;;;61.22;29.73;;;;;;;;;;5091869;28;20048;-77
2023/10/30 18:08:30;;;;;;;57.83;34.00;;;;;;;;;;5091805;28;20043;-76
2023/10/30 18:11:17;;;;;;;58.78;34.47;;;;;;;;;;5091816;28;20048;-78
2023/10/30 18:14:04;;;;;;;56.08;33.10;;;;;;;;;;5091876;28;20486;-76
2023/10/30 18:16:49;;;;;;;62.03;32.83;;;;;;;;;;5091798;28;20040;-78
2023/10/30 18:19:36;;;;;;;64.43;32.75;;;;;;;;;;5076868;28;20052;-76
2023/10/30 18:22:22;;;;;;;66.00;32.28;;;;;;;;;;5091006;28;20044;-76
2023/10/30 18:25:08;;;;;;;67.53;36.28;;;;;;;;;;5091908;28;20044;-78
2023/10/30 18:27:55;;;;;;;83.25;41.85;;;;;;;;;;5091395;28;20040;-75
2023/10/30 18:30:40;;;;;;;62.85;35.55;;;;;;;;;;5090967;28;20397;-77
2023/10/30 18:33:28;;;;;;;41.28;24.27;;;;;;;;;;5098396;28;20043;-77
2023/10/30 18:36:14;;;;;;;43.33;24.85;;;;;;;;;;5091291;28;20047;-76
2023/10/30 18:39:00;;;;;;;65.70;34.17;;;;;;;;;;5090883;28;20040;-76
2023/10/30 18:41:45;;;;;;;91.45;36.55;;;;;;;;;;5091200;28;20374;-77
2023/10/30 18:44:31;;;;;;;73.85;29.88;;;;;;;;;;5091325;28;20040;-78
2023/10/30 18:47:18;;;;;;;53.65;26.42;;;;;;;;;;5091275;28;20481;-78
2023/10/30 18:50:05;;;;;;;60.00;29.58;;;;;;;;;;5091531;28;20041;-77
2023/10/30 18:52:51;;;;;;;55.22;29.02;;;;;;;;;;5090902;28;20044;-77
2023/10/30 18:55:37;;;;;;;55.20;29.30;;;;;;;;;;5091635;28;20044;-77
2023/10/30 18:58:23;;;;;;;50.03;25.63;;;;;;;;;;5090804;28;20056;-76
2023/10/30 19:01:08;;;;;;;40.83;23.25;;;;;;;;;;5097777;28;20032;-78
2023/10/30 19:03:55;;;;;;;43.05;24.13;;;;;;;;;;5090995;28;20765;-78
2023/10/30 19:06:48;;;;;;;46.20;24.85;;;;;;;;;;5091521;28;20476;-77
2023/10/30 19:09:33;;;;;;;47.30;24.45;;;;;;;;;;5091103;28;20044;-78
2023/10/30 19:12:19;;;;;;;44.33;24.05;;;;;;;;;;5076383;28;20040;-78
2023/10/30 19:15:05;;;;;;;45.00;26.00;;;;;;;;;;5082890;28;20052;-77
2023/10/30 19:17:56;;;;;;;45.83;24.33;;;;;;;;;;5099903;28;20044;-78
2023/10/30 19:20:43;;;;;;;39.95;21.80;;;;;;;;;;5101557;28;20044;-80
2023/10/30 19:23:28;;;;;;;45.97;22.83;;;;;;;;;;5094644;28;20069;-77
2023/10/30 19:26:13;;;;;;;78.15;36.47;;;;;;;;;;5101820;28;20615;-77
2023/10/30 19:28:59;;;;;;;89.70;42.42;;;;;;;;;;5094469;28;20044;-78
2023/10/30 19:31:45;;;;;;;86.60;36.22;;;;;;;;;;5094503;28;20059;-77
2023/10/30 19:34:30;;;;;;;59.17;31.13;;;;;;;;;;5094627;28;20043;-77
2023/10/30 19:37:16;;;;;;;60.00;31.33;;;;;;;;;;5094837;28;20044;-78
2023/10/30 19:40:01;;;;;;;63.92;30.48;;;;;;;;;;5094762;28;20044;-76
2023/10/30 19:42:48;;;;;;;61.38;31.27;;;;;;;;;;5093824;28;20044;-76
2023/10/30 19:45:35;;;;;;;49.17;26.67;;;;;;;;;;5094763;28;20405;-78
2023/10/30 19:48:21;;;;;;;49.60;26.48;;;;;;;;;;5094463;28;20036;-77
2023/10/30 19:51:07;;;;;;;44.90;26.85;;;;;;;;;;5101533;28;20044;-78
2023/10/30 19:53:54;;;;;;;40.75;24.63;;;;;;;;;;5079250;28;20040;-77
2023/10/30 19:56:40;;;;;;;38.22;20.92;;;;;;;;;;5085748;28;20048;-77
2023/10/30 19:59:26;;;;;;;27.83;15.38;;;;;;;;;;5085546;28;20056;-77
2023/10/30 20:02:11;;;;;;;23.35;13.02;;;;;;;;;;5101198;28;20397;-77
2023/10/30 20:04:57;;;;;;;22.65;6.95;;;;;;;;;;5094260;28;20052;-77
2023/10/30 20:07:42;;;;;;;19.50;6.93;;;;;;;;;;5093578;28;20052;-78
2023/10/30 20:10:28;;;;;;;45.90;24.50;;;;;;;;;;5094009;28;20048;-76
2023/10/30 20:13:15;;;;;;;59.28;30.38;;;;;;;;;;5078939;28;20040;-76
2023/10/30 20:16:04;;;;;;;80.63;34.88;;;;;;;;;;5093850;28;20044;-76
2023/10/30 20:18:49;;;;;;;68.13;32.33;;;;;;;;;;5093610;28;20044;-77
2023/10/30 20:21:35;;;;;;;59.30;29.50;;;;;;;;;;5100190;28;20051;-79
2023/10/30 20:24:21;;;;;;;50.10;25.02;;;;;;;;;;5094198;28;20040;-77
2023/10/30 20:27:07;;;;;;;54.03;27.42;;;;;;;;;;5094270;28;20048;-78
2023/10/30 20:29:54;;;;;;;44.55;23.70;;;;;;;;;;5094318;28;20432;-79
2023/10/30 20:32:40;;;;;;;40.97;23.00;;;;;;;;;;5093994;28;20056;-77
2023/10/30 20:35:25;;;;;;;36.75;20.90;;;;;;;;;;5094289;28;20409;-78
2023/10/30 20:38:11;;;;;;;32.38;18.58;;;;;;;;;;5093834;28;20040;-78
2023/10/30 20:40:56;;;;;;;37.22;18.63;;;;;;;;;;5093378;28;20056;-77
2023/10/30 20:43:43;;;;;;;34.38;18.67;;;;;;;;;;5100026;28;20048;-77
2023/10/30 20:46:29;;;;;;;39.22;19.27;;;;;;;;;;5100362;28;20044;-78
2023/10/30 20:49:15;;;;;;;26.55;12.32;;;;;;;;;;5094094;28;20047;-79
2023/10/30 20:52:01;;;;;;;39.67;19.65;;;;;;;;;;5100194;28;20048;-79
2023/10/30 20:54:46;;;;;;;37.25;19.40;;;;;;;;;;5094527;28;20512;-78
2023/10/30 20:57:33;;;;;;;31.58;17.65;;;;;;;;;;5092649;28;20048;-79
2023/10/30 21:00:19;;;;;;;31.02;16.63;;;;;;;;;;5100621;28;20043;-78
2023/10/30 21:03:08;;;;;;;39.88;18.45;;;;;;;;;;5093304;28;20048;-78
2023/10/30 21:05:54;;;;;;;33.88;18.35;;;;;;;;;;5093897;28;20433;-77
2023/10/30 21:08:41;;;;;;;32.92;17.50;;;;;;;;;;5099256;28;20044;-79
2023/10/30 21:11:28;;;;;;;29.75;15.25;;;;;;;;;;5093391;28;20048;-79
2023/10/30 21:14:13;;;;;;;31.27;16.40;;;;;;;;;;5092426;28;20032;-77
2023/10/30 21:16:59;;;;;;;37.30;16.58;;;;;;;;;;5093465;28;20485;-78
2023/10/30 21:19:45;;;;;;;33.92;17.67;;;;;;;;;;5093163;28;20143;-78
2023/10/30 21:22:31;;;;;;;32.80;17.23;;;;;;;;;;5084063;28;20048;-79
2023/10/30 21:25:17;;;;;;;37.42;16.70;;;;;;;;;;5092843;28;20048;-78
2023/10/30 21:28:02;;;;;;;31.52;15.13;;;;;;;;;;5093032;28;20052;-76
2023/10/30 21:30:48;;;;;;;26.15;15.05;;;;;;;;;;5100263;28;20405;-79
2023/10/30 21:33:33;;;;;;;27.88;14.88;;;;;;;;;;5099061;28;20048;-78
2023/10/30 21:36:19;;;;;;;32.08;14.68;;;;;;;;;;5104529;28;20048;-78
2023/10/30 21:39:05;;;;;;;32.95;16.63;;;;;;;;;;5105980;28;20052;-78
2023/10/30 21:41:52;;;;;;;31.38;16.33;;;;;;;;;;5076987;28;20489;-76
2023/10/30 21:44:37;;;;;;;29.15;16.55;;;;;;;;;;5092595;28;20480;-80
2023/10/30 21:47:22;;;;;;;32.95;15.65;;;;;;;;;;5070108;28;20048;-78
2023/10/30 21:50:10;;;;;;;36.47;16.50;;;;;;;;;;5086776;28;20041;-79
2023/10/30 21:52:55;;;;;;;33.47;17.05;;;;;;;;;;5063768;28;20052;-80
2023/10/30 21:55:42;;;;;;;32.67;17.48;;;;;;;;;;5072485;28;20052;-81
2023/10/30 21:58:28;;;;;;;37.00;18.52;;;;;;;;;;5072179;28;20037;-80
2023/10/30 22:01:16;;;;;;;37.90;18.40;;;;;;;;;;5079142;28;20108;-80
2023/10/30 22:04:02;;;;;;;37.75;18.55;;;;;;;;;;5072942;28;20048;-79
2023/10/30 22:06:48;;;;;;;42.25;19.27;;;;;;;;;;5072452;28;20044;-79
2023/10/30 22:09:33;;;;;;;30.15;17.83;;;;;;;;;;5071814;28;20486;-79
2023/10/30 22:12:23;;;;;;;37.92;17.92;;;;;;;;;;5071721;28;20538;-80
2023/10/30 22:15:09;;;;;;;34.08;19.15;;;;;;;;;;5057189;28;20049;-79
2023/10/30 22:17:55;;;;;;;40.20;21.40;;;;;;;;;;5071737;28;20474;-80
2023/10/30 22:20:40;;;;;;;44.28;22.27;;;;;;;;;;5072012;28;20041;-80
2023/10/30 22:23:26;;;;;;;37.78;18.90;;;;;;;;;;5071646;28;20052;-79
2023/10/30 22:26:12;;;;;;;36.75;19.15;;;;;;;;;;5071705;28;20044;-79
2023/10/30 22:28:59;;;;;;;28.50;16.73;;;;;;;;;;5071920;28;20040;-79
2023/10/30 22:31:44;;;;;;;33.90;18.10;;;;;;;;;;5071809;28;20053;-79
2023/10/30 22:34:29;;;;;;;35.88;17.92;;;;;;;;;;5071513;28;20045;-80
2023/10/30 22:37:15;;;;;;;38.70;18.35;;;;;;;;;;5056617;28;20053;-79
2023/10/30 22:40:01;;;;;;;29.33;16.85;;;;;;;;;;5049203;28;20041;-80
2023/10/30 22:42:47;;;;;;;31.50;15.57;;;;;;;;;;5071542;28;20566;-79
2023/10/30 22:45:34;;;;;;;33.03;17.73;;;;;;;;;;5077823;28;20044;-81
2023/10/30 22:48:19;;;;;;;35.10;17.92;;;;;;;;;;5071244;28;20048;-80
2023/10/30 22:51:05;;;;;;;32.08;17.38;;;;;;;;;;5071592;28;20056;-79
2023/10/30 22:53:51;;;;;;;29.65;17.17;;;;;;;;;;5082068;28;20036;-80
2023/10/30 22:56:39;;;;;;;29.98;14.40;;;;;;;;;;5075620;28;20053;-80
2023/10/30 22:59:25;;;;;;;26.65;14.20;;;;;;;;;;5075558;28;20040;-79
2023/10/30 23:02:11;;;;;;;24.85;13.23;;;;;;;;;;5060413;28;20044;-79
2023/10/30 23:04:57;;;;;;;25.80;14.82;;;;;;;;;;5075303;28;20048;-78
2023/10/30 23:07:43;;;;;;;26.35;13.93;;;;;;;;;;5075636;28;20044;-78
2023/10/30 23:10:28;;;;;;;30.58;14.65;;;;;;;;;;5075133;28;20052;-79
2023/10/30 23:13:13;;;;;;;19.10;10.82;;;;;;;;;;5075172;28;20041;-78
2023/10/30 23:15:58;;;;;;;38.80;12.20;;;;;;;;;;5060715;28;20468;-79
2023/10/30 23:18:44;;;;;;;21.65;10.65;;;;;;;;;;5075272;28;20044;-79
2023/10/30 23:21:29;;;;;;;19.17;10.15;;;;;;;;;;5075344;28;20044;-80
2023/10/30 23:24:16;;;;;;;21.45;9.93;;;;;;;;;;5066719;28;20485;-79
2023/10/30 23:27:02;;;;;;;18.25;8.63;;;;;;;;;;5075362;28;20048;-79
2023/10/30 23:29:47;;;;;;;15.60;8.98;;;;;;;;;;5075313;28;20056;-78
2023/10/30 23:32:32;;;;;;;18.17;9.27;;;;;;;;;;5074767;28;20045;-79
2023/10/30 23:35:21;;;;;;;19.88;9.55;;;;;;;;;;5074803;28;20053;-78
2023/10/30 23:38:06;;;;;;;16.60;8.98;;;;;;;;;;5081628;28;20032;-79
2023/10/30 23:40:51;;;;;;;16.48;7.75;;;;;;;;;;5081693;28;20486;-79
2023/10/30 23:43:39;;;;;;;19.08;7.90;;;;;;;;;;5074470;28;20036;-79
2023/10/30 23:46:24;;;;;;;12.35;6.85;;;;;;;;;;5074769;28;20040;-78
2023/10/30 23:49:11;;;;;;;19.90;7.70;;;;;;;;;;5074608;28;20048;-78
2023/10/30 23:52:00;;;;;;;14.75;6.47;;;;;;;;;;5074893;28;20052;-78
2023/10/30 23:54:45;;;;;;;15.23;6.60;;;;;;;;;;5073445;28;20067;-78
2023/10/30 23:57:31;;;;;;;10.75;5.80;;;;;;;;;;5073088;28;20067;-80
